West Dundee, Illinois
Current Conditions -  °F | °C
As of 2:52 AM on Monday 22 Dec 2014 (Local Time) from KDPA Reporting Station
Haze Haze  
Wind Chill: 25°   Ceiling: 5000
Heat Index: 32°   Visibility: 6mi
Dew Point: 27°   Wind: 8mph
Humidity: 82%   Direction: 140°SE
Pressure: 29.96"   Gusts: NA
Location:  42.1081°N, 88.3234°W
Report Text: KDPA 220852Z 14007KT 6SM HZ OVC050 00/M03 A2996 RMK AO2 SLP151 T00001028 56011
Loading
Personal Weather Stations






























Interactive Weather Map New forecast layout! Learn more

10-Day Weather Forecast

Advertisements
Track Severe Weather on mobile